createdAt,value
2022-12-31T00:03:00.339Z,100235.69
2022-12-31T00:08:02.967Z,100239.16
2022-12-31T00:13:04.756Z,100242.66
2022-12-31T00:18:09.034Z,100253.03
2022-12-31T00:23:12.035Z,100257.44
2022-12-31T00:28:13.964Z,100244.94
2022-12-31T00:33:17.354Z,100258.09
2022-12-31T00:38:19.519Z,100272.84
2022-12-31T00:43:21.397Z,100270.97
2022-12-31T00:48:24.764Z,100271.66
2022-12-31T00:53:27.617Z,100262.75
2022-12-31T00:58:30.158Z,100285.47
2022-12-31T01:03:33.720Z,100288.78
2022-12-31T01:08:36.285Z,100303.88
2022-12-31T01:13:38.453Z,100311.78
2022-12-31T01:18:42.558Z,100292.06
2022-12-31T01:23:45.459Z,100291.09
2022-12-31T01:28:47.916Z,100313.00
2022-12-31T01:33:52.420Z,100316.38
2022-12-31T01:38:55.587Z,100323.38
2022-12-31T01:43:59.954Z,100336.47
2022-12-31T01:49:11.234Z,100326.75
2022-12-31T01:54:17.316Z,100326.75
2022-12-31T01:59:22.210Z,100338.13
2022-12-31T02:04:26.838Z,100327.47
2022-12-31T02:09:29.792Z,100335.38
2022-12-31T02:14:34.467Z,100332.72
2022-12-31T02:20:19.240Z,100332.78
2022-12-31T02:25:40.692Z,100331.84
2022-12-31T02:30:48.734Z,100336.19
2022-12-31T02:35:57.746Z,100338.66
2022-12-31T02:41:01.011Z,100308.63
2022-12-31T02:46:12.507Z,100334.72
2022-12-31T02:51:30.842Z,100325.53
2022-12-31T02:56:40.314Z,100331.78
2022-12-31T03:01:47.054Z,100330.88
2022-12-31T03:06:49.860Z,100327.34
2022-12-31T03:11:52.122Z,100332.53
2022-12-31T03:16:55.550Z,100330.03
2022-12-31T03:21:57.499Z,100320.28
2022-12-31T03:26:59.166Z,100328.41
2022-12-31T03:32:02.868Z,100322.72
2022-12-31T03:37:04.548Z,100311.00
2022-12-31T03:42:06.786Z,100314.53
2022-12-31T03:47:10.035Z,100306.50
2022-12-31T03:52:11.977Z,100292.53
2022-12-31T03:57:13.701Z,100281.03
2022-12-31T04:02:17.386Z,100298.78
2022-12-31T04:07:19.667Z,100293.34
2022-12-31T04:12:21.370Z,100295.09
2022-12-31T04:17:25.033Z,100286.56
2022-12-31T04:22:27.580Z,100313.28
2022-12-31T04:27:29.799Z,100307.09
2022-12-31T04:32:33.523Z,100299.97
2022-12-31T04:37:35.710Z,100291.88
2022-12-31T04:42:38.158Z,100279.56
2022-12-31T04:47:41.771Z,100259.44
2022-12-31T04:52:43.783Z,100257.72
2022-12-31T04:57:46.091Z,100248.81
2022-12-31T05:02:49.756Z,100258.25
2022-12-31T05:07:52.038Z,100249.13
2022-12-31T05:12:54.124Z,100263.59
2022-12-31T05:17:57.529Z,100272.25
2022-12-31T05:22:59.609Z,100262.91
2022-12-31T05:28:01.480Z,100241.03
2022-12-31T05:33:05.612Z,100228.88
2022-12-31T05:38:08.053Z,100217.28
2022-12-31T05:43:10.043Z,100210.31
2022-12-31T05:48:13.682Z,100214.56
2022-12-31T05:53:16.244Z,100211.75
2022-12-31T05:58:18.245Z,100196.69
2022-12-31T06:03:21.857Z,100201.97
2022-12-31T06:08:23.905Z,100191.13
2022-12-31T06:13:25.678Z,100197.84
2022-12-31T06:18:29.052Z,100193.25
2022-12-31T06:23:31.049Z,100189.63
2022-12-31T06:28:33.875Z,100187.19
2022-12-31T06:33:37.455Z,100197.34
2022-12-31T06:38:40.519Z,100197.06
2022-12-31T06:43:42.912Z,100193.81
2022-12-31T06:48:46.032Z,100193.88
2022-12-31T06:53:50.320Z,100193.34
2022-12-31T06:58:52.596Z,100186.63
2022-12-31T07:04:04.413Z,100180.97
2022-12-31T07:09:10.843Z,100181.47
2022-12-31T07:14:26.940Z,100186.88
2022-12-31T07:19:42.918Z,100187.41
2022-12-31T07:24:45.100Z,100186.31
2022-12-31T07:30:01.715Z,100179.59
2022-12-31T07:35:16.710Z,100188.19
2022-12-31T07:40:29.476Z,100185.91
2022-12-31T07:45:40.517Z,100194.28
2022-12-31T07:50:44.793Z,100204.81
2022-12-31T07:55:47.517Z,100205.44
2022-12-31T08:00:52.464Z,100209.31
2022-12-31T08:06:08.232Z,100214.38
2022-12-31T08:11:16.971Z,100218.81
2022-12-31T08:16:19.723Z,100223.72
2022-12-31T08:21:35.904Z,100218.88
2022-12-31T08:26:52.590Z,100220.31
2022-12-31T08:32:01.590Z,100217.59
2022-12-31T08:37:08.620Z,100209.69
2022-12-31T08:42:20.215Z,100204.06
2022-12-31T08:47:37.039Z,100204.66
2022-12-31T08:52:42.507Z,100212.16
2022-12-31T08:57:54.082Z,100238.75
2022-12-31T09:03:11.486Z,100238.38
2022-12-31T09:08:22.030Z,100244.31
2022-12-31T09:13:33.996Z,100240.59
2022-12-31T09:18:40.263Z,100243.28
2022-12-31T09:23:44.208Z,100242.00
2022-12-31T09:28:53.885Z,100236.44
2022-12-31T09:34:01.661Z,100247.31
2022-12-31T09:39:12.299Z,100233.25
2022-12-31T09:44:53.195Z,100241.00
2022-12-31T09:50:16.397Z,100234.84
2022-12-31T09:55:35.162Z,100232.84
2022-12-31T10:00:43.150Z,100221.56
2022-12-31T10:06:06.741Z,100222.56
2022-12-31T10:11:19.606Z,100226.63
2022-12-31T10:16:58.364Z,100226.94
2022-12-31T10:22:18.778Z,100245.31
2022-12-31T10:27:33.162Z,100250.69
2022-12-31T10:32:43.947Z,100242.81
2022-12-31T10:37:57.055Z,100267.75
2022-12-31T10:43:36.679Z,100267.38
2022-12-31T10:49:09.877Z,100261.84
2022-12-31T11:00:08.252Z,100264.25
2022-12-31T11:05:47.151Z,100267.38
2022-12-31T11:11:05.588Z,100288.72
2022-12-31T11:16:24.247Z,100288.09
2022-12-31T11:21:41.757Z,100293.84
2022-12-31T11:26:57.476Z,100295.19
2022-12-31T11:32:10.335Z,100295.53
2022-12-31T11:37:27.460Z,100289.53
2022-12-31T11:42:44.408Z,100296.34
2022-12-31T11:48:29.511Z,100288.78
2022-12-31T11:53:39.739Z,100295.59
2022-12-31T11:58:48.159Z,100294.09
2022-12-31T12:03:52.251Z,100288.44
2022-12-31T12:08:59.159Z,100282.28
2022-12-31T12:14:03.407Z,100275.53
2022-12-31T12:19:16.885Z,100292.66
2022-12-31T12:24:21.448Z,100279.38
2022-12-31T12:29:27.903Z,100283.25
2022-12-31T12:34:33.850Z,100283.78
2022-12-31T12:39:35.840Z,100282.44
2022-12-31T12:44:37.928Z,100283.44
2022-12-31T12:49:44.302Z,100289.25
2022-12-31T12:55:02.878Z,100297.69
2022-12-31T13:00:18.893Z,100289.16
2022-12-31T13:05:31.749Z,100273.56
2022-12-31T13:10:49.511Z,100286.75
2022-12-31T13:15:58.692Z,100303.31
2022-12-31T13:21:11.304Z,100299.28
2022-12-31T13:26:20.027Z,100298.25
2022-12-31T13:31:27.689Z,100306.81
2022-12-31T13:36:35.379Z,100302.97
2022-12-31T13:41:42.380Z,100303.88
2022-12-31T13:46:50.400Z,100322.75
2022-12-31T13:52:01.182Z,100331.19
2022-12-31T13:57:11.192Z,100340.38
2022-12-31T14:02:31.417Z,100347.63
2022-12-31T14:07:45.291Z,100374.94
2022-12-31T14:12:53.892Z,100379.63
2022-12-31T14:18:03.497Z,100397.31
2022-12-31T14:23:18.086Z,100404.38
2022-12-31T14:28:25.675Z,100406.28
2022-12-31T14:33:51.154Z,100415.03
2022-12-31T14:39:07.694Z,100417.19
2022-12-31T14:44:25.815Z,100435.06
2022-12-31T14:49:39.935Z,100445.31
2022-12-31T14:54:43.603Z,100448.25
2022-12-31T14:59:54.173Z,100456.97
2022-12-31T15:05:11.465Z,100455.09
2022-12-31T15:10:20.755Z,100445.97
2022-12-31T15:15:57.444Z,100445.63
2022-12-31T15:21:32.227Z,100448.13
2022-12-31T15:26:35.561Z,100449.59
2022-12-31T15:31:47.090Z,100455.91
2022-12-31T15:36:52.936Z,100456.88
2022-12-31T15:47:27.950Z,100454.16
2022-12-31T15:52:36.871Z,100455.91
2022-12-31T15:57:42.157Z,100454.75
2022-12-31T16:02:45.529Z,100466.59
2022-12-31T16:07:47.993Z,100474.16
2022-12-31T16:12:54.062Z,100467.00
2022-12-31T16:18:01.494Z,100469.16
2022-12-31T16:23:20.364Z,100487.81
2022-12-31T16:28:28.764Z,100481.91
2022-12-31T16:33:31.363Z,100489.81
2022-12-31T16:38:35.698Z,100506.75
2022-12-31T16:43:40.739Z,100515.09
2022-12-31T16:48:46.568Z,100517.38
2022-12-31T16:53:49.803Z,100519.00
2022-12-31T16:59:00.333Z,100500.34
2022-12-31T17:04:09.103Z,100511.06
2022-12-31T17:09:14.266Z,100502.09
2022-12-31T17:14:19.451Z,100504.09
2022-12-31T17:19:33.422Z,100505.22
2022-12-31T17:24:36.013Z,100535.84
2022-12-31T17:29:39.143Z,100511.53
2022-12-31T17:34:48.508Z,100523.78
2022-12-31T17:39:51.747Z,100536.72
2022-12-31T17:44:58.846Z,100540.31
2022-12-31T17:50:08.982Z,100533.44
2022-12-31T17:55:11.171Z,100532.69
2022-12-31T18:00:20.004Z,100524.44
2022-12-31T18:05:24.203Z,100544.63
2022-12-31T18:10:30.389Z,100552.94
2022-12-31T18:15:34.111Z,100545.81
2022-12-31T18:20:36.710Z,100541.25
2022-12-31T18:30:42.477Z,100549.97
2022-12-31T18:36:08.301Z,100558.97
2022-12-31T18:41:16.833Z,100562.19
2022-12-31T18:46:23.395Z,100565.34
2022-12-31T18:51:31.730Z,100560.09
2022-12-31T18:56:34.440Z,100577.34
2022-12-31T19:01:39.949Z,100561.25
2022-12-31T19:06:42.448Z,100565.47
2022-12-31T19:11:44.977Z,100567.44
2022-12-31T19:16:49.642Z,100570.69
2022-12-31T19:21:51.769Z,100568.97
2022-12-31T19:26:54.567Z,100556.50
2022-12-31T19:31:58.390Z,100568.97
2022-12-31T19:37:00.537Z,100557.59
2022-12-31T19:42:02.618Z,100559.19
2022-12-31T19:47:05.944Z,100551.44
2022-12-31T19:52:08.378Z,100543.41
2022-12-31T19:57:10.453Z,100542.66
2022-12-31T20:02:14.233Z,100538.13
2022-12-31T20:07:18.808Z,100556.06
2022-12-31T20:12:24.292Z,100565.34
2022-12-31T20:17:27.863Z,100569.84
2022-12-31T20:22:30.011Z,100558.97
2022-12-31T20:27:31.802Z,100551.84
2022-12-31T20:32:35.279Z,100553.72
2022-12-31T20:37:37.825Z,100557.97
2022-12-31T20:42:39.958Z,100568.38
2022-12-31T20:47:43.377Z,100558.06
2022-12-31T20:52:45.591Z,100544.50
2022-12-31T20:57:47.729Z,100552.22
2022-12-31T21:02:59.009Z,100560.81
2022-12-31T21:08:06.547Z,100553.81
2022-12-31T21:13:08.591Z,100554.59
2022-12-31T21:18:11.853Z,100556.44
2022-12-31T21:23:13.894Z,100551.44
2022-12-31T21:28:15.863Z,100570.19
2022-12-31T21:33:18.984Z,100567.47
2022-12-31T21:38:21.432Z,100568.28
2022-12-31T21:43:23.548Z,100579.84
2022-12-31T21:48:27.084Z,100591.91
2022-12-31T21:53:36.650Z,100599.34
2022-12-31T21:58:41.500Z,100602.81
2022-12-31T22:03:45.744Z,100604.34
2022-12-31T22:08:50.558Z,100605.84
2022-12-31T22:13:53.158Z,100597.19
2022-12-31T22:18:56.818Z,100605.50
2022-12-31T22:23:58.639Z,100610.19
2022-12-31T22:29:00.483Z,100600.13
2022-12-31T22:34:03.639Z,100613.00
2022-12-31T22:39:05.722Z,100628.94
2022-12-31T22:44:08.768Z,100630.69
2022-12-31T22:49:12.688Z,100641.63
2022-12-31T22:54:15.135Z,100631.78
2022-12-31T22:59:17.343Z,100632.31
2022-12-31T23:04:21.164Z,100633.44
2022-12-31T23:09:23.527Z,100648.50
2022-12-31T23:14:25.689Z,100646.59
2022-12-31T23:19:29.214Z,100644.28
2022-12-31T23:24:31.294Z,100648.38
2022-12-31T23:29:33.213Z,100639.44
2022-12-31T23:34:36.899Z,100648.09
2022-12-31T23:39:39.588Z,100640.47
2022-12-31T23:44:41.329Z,100638.94
2022-12-31T23:49:44.860Z,100654.91
2022-12-31T23:54:46.730Z,100660.72
2022-12-31T23:59:49.129Z,100667.66
